createdAt,value
2022-09-09T00:00:48.336Z,16.72
2022-09-09T00:01:48.259Z,16.78
2022-09-09T00:02:48.348Z,16.69
2022-09-09T00:03:48.181Z,16.72
2022-09-09T00:04:48.027Z,16.72
2022-09-09T00:05:47.950Z,16.74
2022-09-09T00:06:47.878Z,16.69
2022-09-09T00:07:47.804Z,16.76
2022-09-09T00:08:47.719Z,16.81
2022-09-09T00:09:47.646Z,16.76
2022-09-09T00:10:47.575Z,16.68
2022-09-09T00:11:47.492Z,16.64
2022-09-09T00:12:47.411Z,16.72
2022-09-09T00:13:47.334Z,16.68
2022-09-09T00:14:47.264Z,16.65
2022-09-09T00:15:47.234Z,16.68
2022-09-09T00:16:47.103Z,16.65
2022-09-09T00:17:47.027Z,16.61
2022-09-09T00:18:46.951Z,16.65
2022-09-09T00:19:46.870Z,16.71
2022-09-09T00:20:46.791Z,16.64
2022-09-09T00:21:46.718Z,16.58
2022-09-09T00:22:46.645Z,16.65
2022-09-09T00:23:46.565Z,16.58
2022-09-09T00:24:46.488Z,16.56
2022-09-09T00:25:48.793Z,16.54
2022-09-09T00:26:46.336Z,16.56
2022-09-09T00:27:46.258Z,16.54
2022-09-09T00:28:46.188Z,16.53
2022-09-09T00:29:46.112Z,16.54
2022-09-09T00:30:46.082Z,16.54
2022-09-09T00:31:45.944Z,16.51
2022-09-09T00:32:45.874Z,16.49
2022-09-09T00:33:45.802Z,16.56
2022-09-09T00:34:45.714Z,16.50
2022-09-09T00:35:45.641Z,16.64
2022-09-09T00:36:45.564Z,16.56
2022-09-09T00:37:45.480Z,16.54
2022-09-09T00:38:45.407Z,16.43
2022-09-09T00:39:45.428Z,16.50
2022-09-09T00:40:45.252Z,16.46
2022-09-09T00:41:45.174Z,16.47
2022-09-09T00:42:45.099Z,16.47
2022-09-09T00:43:45.022Z,16.41
2022-09-09T00:44:44.945Z,16.56
2022-09-09T00:45:44.897Z,16.42
2022-09-09T00:46:44.788Z,16.49
2022-09-09T00:47:44.723Z,16.50
2022-09-09T00:48:44.636Z,16.43
2022-09-09T00:49:44.560Z,16.47
2022-09-09T00:50:44.489Z,16.46
2022-09-09T00:51:44.405Z,16.47
2022-09-09T00:52:44.325Z,16.56
2022-09-09T00:53:44.249Z,16.56
2022-09-09T00:54:44.180Z,16.47
2022-09-09T00:55:44.099Z,16.46
2022-09-09T00:56:44.019Z,16.54
2022-09-09T00:57:43.941Z,16.54
2022-09-09T00:58:43.864Z,16.58
2022-09-09T00:59:43.790Z,16.53
2022-09-09T01:00:43.710Z,16.53
2022-09-09T01:01:43.686Z,16.53
2022-09-09T01:02:43.639Z,16.57
2022-09-09T01:03:43.478Z,16.50
2022-09-09T01:04:43.402Z,16.60
2022-09-09T01:05:43.327Z,16.58
2022-09-09T01:06:43.251Z,16.60
2022-09-09T01:07:43.177Z,16.65
2022-09-09T01:08:43.086Z,16.65
2022-09-09T01:09:43.018Z,16.72
2022-09-09T01:10:42.935Z,16.74
2022-09-09T01:11:42.859Z,16.72
2022-09-09T01:12:42.782Z,16.81
2022-09-09T01:13:42.704Z,16.78
2022-09-09T01:14:42.634Z,16.81
2022-09-09T01:15:42.549Z,16.84
2022-09-09T01:16:42.546Z,16.87
2022-09-09T01:17:42.396Z,16.84
2022-09-09T01:18:42.322Z,16.84
2022-09-09T01:19:42.250Z,16.83
2022-09-09T01:20:42.165Z,16.89
2022-09-09T01:21:42.088Z,16.86
2022-09-09T01:22:42.014Z,16.86
2022-09-09T01:23:41.930Z,16.90
2022-09-09T01:24:41.856Z,16.93
2022-09-09T01:25:41.780Z,16.93
2022-09-09T01:26:41.703Z,16.93
2022-09-09T01:27:41.623Z,16.99
2022-09-09T01:28:41.548Z,17.01
2022-09-09T01:29:41.475Z,16.94
2022-09-09T01:30:41.416Z,16.99
2022-09-09T01:31:41.312Z,16.99
2022-09-09T01:32:41.246Z,17.01
2022-09-09T01:33:41.167Z,17.05
2022-09-09T01:34:41.083Z,17.02
2022-09-09T01:35:41.039Z,17.05
2022-09-09T01:36:40.932Z,17.05
2022-09-09T01:37:40.872Z,17.01
2022-09-09T01:38:40.793Z,16.99
2022-09-09T01:39:40.728Z,17.04
2022-09-09T01:40:40.621Z,17.06
2022-09-09T01:41:40.543Z,17.11
2022-09-09T01:42:40.471Z,17.06
2022-09-09T01:43:40.386Z,17.08
2022-09-09T01:44:40.310Z,17.06
2022-09-09T01:45:40.257Z,17.09
2022-09-09T01:46:40.154Z,17.14
2022-09-09T01:47:40.084Z,17.14
2022-09-09T01:48:40.006Z,17.12
2022-09-09T01:49:39.934Z,16.94
2022-09-09T01:50:39.854Z,16.99
2022-09-09T01:51:39.774Z,17.06
2022-09-09T01:52:39.697Z,17.11
2022-09-09T01:53:39.622Z,17.06
2022-09-09T01:54:39.549Z,17.05
2022-09-09T01:55:39.468Z,17.02
2022-09-09T01:56:39.389Z,17.08
2022-09-09T01:57:39.313Z,17.12
2022-09-09T01:58:39.239Z,17.04
2022-09-09T01:59:39.165Z,17.06
2022-09-09T02:00:39.075Z,17.12
2022-09-09T02:01:39.034Z,17.08
2022-09-09T02:02:38.985Z,17.12
2022-09-09T02:03:38.848Z,17.05
2022-09-09T02:04:38.771Z,17.11
2022-09-09T02:05:38.696Z,17.14
2022-09-09T02:06:38.626Z,17.11
2022-09-09T02:07:38.544Z,17.11
2022-09-09T02:08:38.464Z,17.11
2022-09-09T02:09:38.388Z,17.09
2022-09-09T02:10:38.317Z,17.05
2022-09-09T02:11:38.237Z,17.08
2022-09-09T02:12:38.157Z,17.08
2022-09-09T02:13:38.082Z,17.09
2022-09-09T02:14:38.000Z,17.06
2022-09-09T02:15:37.925Z,17.06
2022-09-09T02:16:37.933Z,17.08
2022-09-09T02:17:37.768Z,17.11
2022-09-09T02:18:37.760Z,16.96
2022-09-09T02:19:37.615Z,17.09
2022-09-09T02:20:37.543Z,16.97
2022-09-09T02:21:37.465Z,17.04
2022-09-09T02:22:37.397Z,16.91
2022-09-09T02:23:37.311Z,16.97
2022-09-09T02:24:37.236Z,17.01
2022-09-09T02:25:37.163Z,16.87
2022-09-09T02:26:37.083Z,16.89
2022-09-09T02:27:37.003Z,16.90
2022-09-09T02:28:37.043Z,16.83
2022-09-09T02:29:36.850Z,16.84
2022-09-09T02:30:36.826Z,16.84
2022-09-09T02:31:36.697Z,16.86
2022-09-09T02:32:36.656Z,16.84
2022-09-09T02:33:36.538Z,16.83
2022-09-09T02:34:36.459Z,16.78
2022-09-09T02:35:36.380Z,16.75
2022-09-09T02:36:36.305Z,16.76
2022-09-09T02:37:36.233Z,16.75
2022-09-09T02:38:36.447Z,16.79
2022-09-09T02:39:36.112Z,16.81
2022-09-09T02:40:36.000Z,16.74
2022-09-09T02:41:35.923Z,16.69
2022-09-09T02:42:35.845Z,16.74
2022-09-09T02:43:35.772Z,16.84
2022-09-09T02:44:35.692Z,16.79
2022-09-09T02:45:35.623Z,16.75
2022-09-09T02:46:35.537Z,16.71
2022-09-09T02:47:35.463Z,16.78
2022-09-09T02:48:35.522Z,16.74
2022-09-09T02:49:35.303Z,16.72
2022-09-09T02:50:35.231Z,16.75
2022-09-09T02:51:35.151Z,16.71
2022-09-09T02:52:35.080Z,16.72
2022-09-09T02:53:34.998Z,16.78
2022-09-09T02:54:34.932Z,16.74
2022-09-09T02:55:34.849Z,16.76
2022-09-09T02:56:34.775Z,16.81
2022-09-09T02:57:34.687Z,16.83
2022-09-09T02:58:34.617Z,16.74
2022-09-09T02:59:34.541Z,16.78
2022-09-09T03:00:34.454Z,16.75
2022-09-09T03:01:34.459Z,16.76
2022-09-09T03:02:34.361Z,16.78
2022-09-09T03:03:34.228Z,16.75
2022-09-09T03:04:34.150Z,16.68
2022-09-09T03:05:34.072Z,16.71
2022-09-09T03:06:33.992Z,16.64
2022-09-09T03:07:33.916Z,16.64
2022-09-09T03:08:33.875Z,16.68
2022-09-09T03:09:33.764Z,16.58
2022-09-09T03:10:33.689Z,16.65
2022-09-09T03:11:33.612Z,16.68
2022-09-09T03:12:33.533Z,16.74
2022-09-09T03:13:33.463Z,16.71
2022-09-09T03:14:33.378Z,16.60
2022-09-09T03:15:33.299Z,16.66
2022-09-09T03:16:33.328Z,16.61
2022-09-09T03:17:33.151Z,16.68
2022-09-09T03:18:33.075Z,16.66
2022-09-09T03:19:32.996Z,16.64
2022-09-09T03:20:32.919Z,16.68
2022-09-09T03:21:32.836Z,16.61
2022-09-09T03:22:32.762Z,16.61
2022-09-09T03:23:32.682Z,16.65
2022-09-09T03:24:32.608Z,16.65
2022-09-09T03:25:32.525Z,16.58
2022-09-09T03:26:32.452Z,16.64
2022-09-09T03:27:32.374Z,16.64
2022-09-09T03:28:32.647Z,16.57
2022-09-09T03:29:32.222Z,16.66
2022-09-09T03:30:32.147Z,16.64
2022-09-09T03:31:32.119Z,16.64
2022-09-09T03:32:31.991Z,16.66
2022-09-09T03:33:31.907Z,16.64
2022-09-09T03:34:31.835Z,16.65
2022-09-09T03:35:31.758Z,16.61
2022-09-09T03:36:31.679Z,16.51
2022-09-09T03:37:31.603Z,16.64
2022-09-09T03:38:31.528Z,16.64
2022-09-09T03:39:31.503Z,16.61
2022-09-09T03:40:31.369Z,16.58
2022-09-09T03:41:31.295Z,16.61
2022-09-09T03:42:31.227Z,16.58
2022-09-09T03:43:31.138Z,16.66
2022-09-09T03:44:31.058Z,16.60
2022-09-09T03:45:31.027Z,16.58
2022-09-09T03:46:30.909Z,16.54
2022-09-09T03:47:30.835Z,16.51
2022-09-09T03:48:30.890Z,16.56
2022-09-09T03:49:30.677Z,16.50
2022-09-09T03:50:30.601Z,16.66
2022-09-09T03:51:30.517Z,16.54
2022-09-09T03:52:30.449Z,16.54
2022-09-09T03:53:30.366Z,16.53
2022-09-09T03:54:30.293Z,16.57
2022-09-09T03:55:30.212Z,16.58
2022-09-09T03:56:30.131Z,16.60
2022-09-09T03:57:30.063Z,16.54
2022-09-09T03:58:30.036Z,16.56
2022-09-09T03:59:29.906Z,16.51
2022-09-09T04:00:29.826Z,16.57
2022-09-09T04:01:29.783Z,16.61
2022-09-09T04:02:29.718Z,16.47
2022-09-09T04:03:29.591Z,16.42
2022-09-09T04:04:29.521Z,16.47
2022-09-09T04:05:29.442Z,16.43
2022-09-09T04:06:29.362Z,16.56
2022-09-09T04:07:29.287Z,16.46
2022-09-09T04:08:29.248Z,16.46
2022-09-09T04:09:29.135Z,16.36
2022-09-09T04:10:29.059Z,16.38
2022-09-09T04:11:28.980Z,16.41
2022-09-09T04:12:28.899Z,16.41
2022-09-09T04:13:28.822Z,16.43
2022-09-09T04:14:28.750Z,16.41
2022-09-09T04:15:28.673Z,16.31
2022-09-09T04:16:28.677Z,16.31
2022-09-09T04:17:28.512Z,16.29
2022-09-09T04:18:28.438Z,16.31
2022-09-09T04:19:28.362Z,16.26
2022-09-09T04:20:28.281Z,16.26
2022-09-09T04:21:28.206Z,16.28
2022-09-09T04:22:28.128Z,16.26
2022-09-09T04:23:28.050Z,16.21
2022-09-09T04:24:27.969Z,16.21
2022-09-09T04:25:27.896Z,16.23
2022-09-09T04:26:27.815Z,16.28
2022-09-09T04:27:27.748Z,16.29
2022-09-09T04:28:27.661Z,16.21
2022-09-09T04:29:27.589Z,16.24
2022-09-09T04:30:27.509Z,16.26
2022-09-09T04:31:27.546Z,16.26
2022-09-09T04:32:27.354Z,16.15
2022-09-09T04:33:27.277Z,16.28
2022-09-09T04:34:27.201Z,16.24
2022-09-09T04:35:27.124Z,16.31
2022-09-09T04:36:27.046Z,16.26
2022-09-09T04:37:26.960Z,16.21
2022-09-09T04:38:26.885Z,16.23
2022-09-09T04:39:26.814Z,16.20
2022-09-09T04:40:26.737Z,16.23
2022-09-09T04:41:26.656Z,16.20
2022-09-09T04:42:26.585Z,16.26
2022-09-09T04:43:26.505Z,16.13
2022-09-09T04:44:26.422Z,16.24
2022-09-09T04:45:26.428Z,16.20
2022-09-09T04:46:26.278Z,16.20
2022-09-09T04:47:26.188Z,16.20
2022-09-09T04:48:26.110Z,16.16
2022-09-09T04:49:26.039Z,16.23
2022-09-09T04:50:25.960Z,16.28
2022-09-09T04:51:25.892Z,16.23
2022-09-09T04:52:25.806Z,16.24
2022-09-09T04:53:25.731Z,16.23
2022-09-09T04:54:25.651Z,16.26
2022-09-09T04:55:25.572Z,16.29
2022-09-09T04:56:25.494Z,16.23
2022-09-09T04:57:25.420Z,16.24
2022-09-09T04:58:25.344Z,16.21
2022-09-09T04:59:25.262Z,16.26
2022-09-09T05:00:25.187Z,16.31
2022-09-09T05:01:25.198Z,16.26
2022-09-09T05:02:28.541Z,16.24
2022-09-09T05:03:24.960Z,16.31
2022-09-09T05:04:24.877Z,16.33
2022-09-09T05:05:24.796Z,16.26
2022-09-09T05:06:24.739Z,16.28
2022-09-09T05:07:24.647Z,16.32
2022-09-09T05:08:24.566Z,16.29
2022-09-09T05:09:24.489Z,16.33
2022-09-09T05:10:24.415Z,16.31
2022-09-09T05:11:24.349Z,16.32
2022-09-09T05:12:24.258Z,16.31
2022-09-09T05:13:24.175Z,16.23
2022-09-09T05:14:24.109Z,16.24
2022-09-09T05:15:24.034Z,16.21
2022-09-09T05:16:24.120Z,16.39
2022-09-09T05:17:23.872Z,16.26
2022-09-09T05:18:23.790Z,16.24
2022-09-09T05:19:23.718Z,16.24
2022-09-09T05:20:23.634Z,16.29
2022-09-09T05:21:23.561Z,16.23
2022-09-09T05:22:23.486Z,16.31
2022-09-09T05:23:23.409Z,16.31
2022-09-09T05:24:23.325Z,16.31
2022-09-09T05:25:23.254Z,16.38
2022-09-09T05:26:23.170Z,16.42
2022-09-09T05:27:23.096Z,16.38
2022-09-09T05:28:23.021Z,16.41
2022-09-09T05:29:22.940Z,16.42
2022-09-09T05:30:22.862Z,16.39
2022-09-09T05:31:22.854Z,16.43
2022-09-09T05:32:22.706Z,16.53
2022-09-09T05:33:22.627Z,16.49
2022-09-09T05:34:22.558Z,16.49
2022-09-09T05:35:22.485Z,16.61
2022-09-09T05:36:22.399Z,16.56
2022-09-09T05:37:22.328Z,16.54
2022-09-09T05:38:26.950Z,16.53
2022-09-09T05:39:22.166Z,16.56
2022-09-09T05:40:22.145Z,16.54
2022-09-09T05:41:22.010Z,16.53
2022-09-09T05:42:21.931Z,16.49
2022-09-09T05:43:21.870Z,16.66
2022-09-09T05:44:21.788Z,16.64
2022-09-09T05:45:21.699Z,16.66
2022-09-09T05:46:21.702Z,16.68
2022-09-09T05:47:21.547Z,16.69
2022-09-09T05:48:21.468Z,16.71
2022-09-09T05:49:21.398Z,16.78
2022-09-09T05:50:21.313Z,16.76
2022-09-09T05:51:21.239Z,16.72
2022-09-09T05:52:21.164Z,16.76
2022-09-09T05:53:21.084Z,16.72
2022-09-09T05:54:21.010Z,16.75
2022-09-09T05:55:20.926Z,16.64
2022-09-09T05:56:20.852Z,16.61
2022-09-09T05:57:20.776Z,16.61
2022-09-09T05:58:20.698Z,16.61
2022-09-09T05:59:20.622Z,16.58
2022-09-09T06:00:20.545Z,16.64
2022-09-09T06:01:20.469Z,16.65
2022-09-09T06:02:20.534Z,16.60
2022-09-09T06:03:20.360Z,16.68
2022-09-09T06:04:20.232Z,16.72
2022-09-09T06:05:20.155Z,16.78
2022-09-09T06:06:20.080Z,16.79
2022-09-09T06:07:20.008Z,16.71
2022-09-09T06:08:19.923Z,16.71
2022-09-09T06:09:19.847Z,16.65
2022-09-09T06:10:19.785Z,16.68
2022-09-09T06:11:19.696Z,16.60
2022-09-09T06:12:19.619Z,16.53
2022-09-09T06:13:19.538Z,16.53
2022-09-09T06:14:19.466Z,16.57
2022-09-09T06:15:19.391Z,16.53
2022-09-09T06:16:19.409Z,16.53
2022-09-09T06:17:19.238Z,16.54
2022-09-09T06:18:19.156Z,16.53
2022-09-09T06:19:19.085Z,16.54
2022-09-09T06:20:19.003Z,16.49
2022-09-09T06:21:18.923Z,16.43
2022-09-09T06:22:18.846Z,16.53
2022-09-09T06:23:18.768Z,16.50
2022-09-09T06:24:18.690Z,16.46
2022-09-09T06:25:18.612Z,16.46
2022-09-09T06:26:18.567Z,16.53
2022-09-09T06:27:18.454Z,16.53
2022-09-09T06:28:18.382Z,16.56
2022-09-09T06:29:18.309Z,16.54
2022-09-09T06:30:18.238Z,16.51
2022-09-09T06:31:18.214Z,16.53
2022-09-09T06:32:18.072Z,16.56
2022-09-09T06:33:17.992Z,16.56
2022-09-09T06:34:17.917Z,16.56
2022-09-09T06:35:17.840Z,16.64
2022-09-09T06:36:17.765Z,16.54
2022-09-09T06:37:17.688Z,16.56
2022-09-09T06:38:17.608Z,16.54
2022-09-09T06:39:17.537Z,16.56
2022-09-09T06:40:17.484Z,16.61
2022-09-09T06:41:17.374Z,16.69
2022-09-09T06:42:17.299Z,16.72
2022-09-09T06:43:17.224Z,16.76
2022-09-09T06:44:17.146Z,16.65
2022-09-09T06:45:17.067Z,16.79
2022-09-09T06:46:17.040Z,16.81
2022-09-09T06:47:16.915Z,16.84
2022-09-09T06:48:16.834Z,16.84
2022-09-09T06:49:16.761Z,16.84
2022-09-09T06:50:16.680Z,16.87
2022-09-09T06:51:16.601Z,16.86
2022-09-09T06:52:16.529Z,16.91
2022-09-09T06:53:16.451Z,16.94
2022-09-09T06:54:16.379Z,17.05
2022-09-09T06:55:16.294Z,17.16
2022-09-09T06:56:18.031Z,17.26
2022-09-09T06:57:34.041Z,17.27
2022-09-09T06:58:16.065Z,17.30
2022-09-09T06:59:15.989Z,17.29
2022-09-09T07:00:15.906Z,17.30
2022-09-09T07:01:15.892Z,17.29
2022-09-09T07:02:15.803Z,17.23
2022-09-09T07:03:15.683Z,17.27
2022-09-09T07:04:15.602Z,17.30
2022-09-09T07:05:15.532Z,17.26
2022-09-09T07:06:15.451Z,17.27
2022-09-09T07:07:15.370Z,17.27
2022-09-09T07:08:15.298Z,17.34
2022-09-09T07:09:15.218Z,17.29
2022-09-09T07:10:15.144Z,17.39
2022-09-09T07:11:15.068Z,17.41
2022-09-09T07:12:14.982Z,17.41
2022-09-09T07:13:14.913Z,17.38
2022-09-09T07:14:14.848Z,17.42
2022-09-09T07:15:14.758Z,17.51
2022-09-09T07:16:14.687Z,17.46
2022-09-09T07:17:14.605Z,17.39
2022-09-09T07:18:14.527Z,17.42
2022-09-09T07:19:14.452Z,17.34
2022-09-09T07:20:14.372Z,17.56
2022-09-09T07:21:14.300Z,17.60
2022-09-09T07:22:14.219Z,17.60
2022-09-09T07:23:14.147Z,17.54
2022-09-09T07:24:14.080Z,17.57
2022-09-09T07:25:13.984Z,17.54
2022-09-09T07:26:13.915Z,17.56
2022-09-09T07:27:13.837Z,17.64
2022-09-09T07:28:13.760Z,17.65
2022-09-09T07:29:17.271Z,17.67
2022-09-09T07:30:19.273Z,17.76
2022-09-09T07:31:13.583Z,17.76
2022-09-09T07:32:13.452Z,17.80
2022-09-09T07:33:13.377Z,17.86
2022-09-09T07:34:13.294Z,17.87
2022-09-09T07:35:13.222Z,17.90
2022-09-09T07:36:13.148Z,17.94
2022-09-09T07:37:13.070Z,18.07
2022-09-09T07:38:13.000Z,18.04
2022-09-09T07:39:12.920Z,18.10
2022-09-09T07:40:12.868Z,18.19
2022-09-09T07:41:12.784Z,18.20
2022-09-09T07:42:12.687Z,18.10
2022-09-09T07:43:17.115Z,18.29
2022-09-09T07:44:12.533Z,18.18
2022-09-09T07:45:12.459Z,18.18
2022-09-09T07:46:12.455Z,18.08
2022-09-09T07:47:12.307Z,18.05
2022-09-09T07:48:12.231Z,18.08
2022-09-09T07:49:12.151Z,17.92
2022-09-09T07:50:12.072Z,17.90
2022-09-09T07:51:11.998Z,17.76
2022-09-09T07:52:13.225Z,17.76
2022-09-09T07:53:11.842Z,17.71
2022-09-09T07:54:11.767Z,17.76
2022-09-09T07:55:11.694Z,17.70
2022-09-09T07:56:11.620Z,17.74
2022-09-09T07:57:11.541Z,17.59
2022-09-09T07:58:11.464Z,17.59
2022-09-09T07:59:11.401Z,17.54
2022-09-09T08:00:11.309Z,17.54
2022-09-09T08:01:11.232Z,17.57
2022-09-09T08:02:11.165Z,17.57
2022-09-09T08:03:11.126Z,17.54
2022-09-09T08:04:11.018Z,17.54
2022-09-09T08:05:10.927Z,17.51
2022-09-09T08:06:10.854Z,17.49
2022-09-09T08:07:10.772Z,17.57
2022-09-09T08:08:10.695Z,17.48
2022-09-09T08:09:10.621Z,17.44
2022-09-09T08:10:10.543Z,17.41
2022-09-09T08:11:10.467Z,17.39
2022-09-09T08:12:10.393Z,17.41
2022-09-09T08:13:17.946Z,17.38
2022-09-09T08:14:10.236Z,17.42
2022-09-09T08:15:10.159Z,17.39
2022-09-09T08:16:10.143Z,17.54
2022-09-09T08:17:10.009Z,17.52
2022-09-09T08:18:09.935Z,17.54
2022-09-09T08:19:09.856Z,17.57
2022-09-09T08:20:09.779Z,17.51
2022-09-09T08:21:09.696Z,17.54
2022-09-09T08:22:09.628Z,17.52
2022-09-09T08:23:09.546Z,17.54
2022-09-09T08:24:09.473Z,17.59
2022-09-09T08:25:09.395Z,17.59
2022-09-09T08:26:09.314Z,17.60
2022-09-09T08:27:09.241Z,17.57
2022-09-09T08:28:09.164Z,17.56
2022-09-09T08:29:09.084Z,17.48
2022-09-09T08:30:09.011Z,17.59
2022-09-09T08:31:08.984Z,17.57
2022-09-09T08:32:08.853Z,17.57
2022-09-09T08:33:08.779Z,17.60
2022-09-09T08:34:08.703Z,17.49
2022-09-09T08:35:08.626Z,17.56
2022-09-09T08:36:08.547Z,17.56
2022-09-09T08:37:08.472Z,17.54
2022-09-09T08:38:10.969Z,17.49
2022-09-09T08:39:08.321Z,17.49
2022-09-09T08:40:08.267Z,17.59
2022-09-09T08:41:08.164Z,17.57
2022-09-09T08:42:08.087Z,17.57
2022-09-09T08:43:08.013Z,17.57
2022-09-09T08:44:07.939Z,17.63
2022-09-09T08:45:07.856Z,17.68
2022-09-09T08:46:07.793Z,17.78
2022-09-09T08:47:07.703Z,17.80
2022-09-09T08:48:07.632Z,17.74
2022-09-09T08:49:07.550Z,17.76
2022-09-09T08:50:07.475Z,17.79
2022-09-09T08:51:07.419Z,17.79
2022-09-09T08:52:07.319Z,17.80
2022-09-09T08:53:07.245Z,17.79
2022-09-09T08:54:07.168Z,17.85
2022-09-09T08:55:07.088Z,17.92
2022-09-09T08:56:07.018Z,17.94
2022-09-09T08:57:06.939Z,18.00
2022-09-09T08:58:06.863Z,18.08
2022-09-09T08:59:06.783Z,18.04
2022-09-09T09:00:06.708Z,18.05
2022-09-09T09:01:06.629Z,18.18
2022-09-09T09:02:06.612Z,18.15
2022-09-09T09:03:06.479Z,18.33
2022-09-09T09:04:06.403Z,18.38
2022-09-09T09:05:06.442Z,18.34
2022-09-09T09:06:06.254Z,18.43
2022-09-09T09:07:06.173Z,18.50
2022-09-09T09:08:06.095Z,18.59
2022-09-09T09:09:06.022Z,18.66
2022-09-09T09:10:18.915Z,18.66
2022-09-09T09:11:05.866Z,18.80
2022-09-09T09:12:05.793Z,18.78
2022-09-09T09:13:05.718Z,18.84
2022-09-09T09:14:05.638Z,18.81
2022-09-09T09:15:05.564Z,18.84
2022-09-09T09:16:05.561Z,18.95
2022-09-09T09:17:05.416Z,18.88
2022-09-09T09:18:05.340Z,19.02
2022-09-09T09:19:05.255Z,19.04
2022-09-09T09:20:05.181Z,19.12
2022-09-09T09:21:05.110Z,19.21
2022-09-09T09:22:05.035Z,19.18
2022-09-09T09:23:04.958Z,19.26
2022-09-09T09:24:04.878Z,19.14
2022-09-09T09:25:04.802Z,19.18
2022-09-09T09:26:04.723Z,19.27
2022-09-09T09:27:04.673Z,19.30
2022-09-09T09:28:04.573Z,19.34
2022-09-09T09:29:04.501Z,19.44
2022-09-09T09:30:22.824Z,19.54
2022-09-09T09:31:04.364Z,19.62
2022-09-09T09:32:04.269Z,19.64
2022-09-09T09:33:04.200Z,19.76
2022-09-09T09:34:04.119Z,19.81
2022-09-09T09:35:04.042Z,19.85
2022-09-09T09:36:03.970Z,19.92
2022-09-09T09:37:03.884Z,19.94
2022-09-09T09:40:03.961Z,20.09
2022-09-09T09:41:03.590Z,20.14
2022-09-09T09:42:06.470Z,20.14
2022-09-09T09:43:03.439Z,20.21
2022-09-09T09:44:03.366Z,20.32
2022-09-09T09:45:03.287Z,20.29
2022-09-09T09:46:18.524Z,20.22
2022-09-09T09:47:03.213Z,20.31
2022-09-09T09:48:07.135Z,20.22
2022-09-09T09:49:02.981Z,20.25
2022-09-09T09:50:02.909Z,20.28
2022-09-09T09:51:02.835Z,20.16
2022-09-09T09:52:02.766Z,20.22
2022-09-09T09:53:02.686Z,20.14
2022-09-09T09:54:02.613Z,20.22
2022-09-09T09:55:06.868Z,20.32
2022-09-09T09:56:02.465Z,20.40
2022-09-09T09:57:02.385Z,20.44
2022-09-09T09:58:02.444Z,20.56
2022-09-09T09:59:09.266Z,20.65
2022-09-09T10:00:02.161Z,20.72
2022-09-09T10:01:02.080Z,20.74
2022-09-09T10:02:02.010Z,20.81
2022-09-09T10:03:01.946Z,20.82
2022-09-09T10:04:01.855Z,20.85
2022-09-09T10:05:01.867Z,20.84
2022-09-09T10:06:01.707Z,20.92
2022-09-09T10:07:01.639Z,21.09
2022-09-09T10:08:01.559Z,21.14
2022-09-09T10:09:01.487Z,21.22
2022-09-09T10:10:01.410Z,21.25
2022-09-09T10:11:01.333Z,21.39
2022-09-09T10:12:01.272Z,21.51
2022-09-09T10:13:01.182Z,21.52
2022-09-09T10:14:01.109Z,21.55
2022-09-09T10:15:01.039Z,21.50
2022-09-09T10:16:05.109Z,21.57
2022-09-09T10:17:00.885Z,21.61
2022-09-09T10:18:00.810Z,21.61
2022-09-09T10:19:00.740Z,21.70
2022-09-09T10:20:00.659Z,21.70
2022-09-09T10:21:00.586Z,21.73
2022-09-09T10:22:00.513Z,21.79
2022-09-09T10:23:00.438Z,21.72
2022-09-09T10:24:00.376Z,21.67
2022-09-09T10:25:00.293Z,21.61
2022-09-09T10:26:00.219Z,21.60
2022-09-09T10:27:00.142Z,21.54
2022-09-09T10:28:05.351Z,21.50
2022-09-09T10:28:59.990Z,21.48
2022-09-09T10:29:59.920Z,21.50
2022-09-09T10:30:59.887Z,21.60
2022-09-09T10:31:59.772Z,21.75
2022-09-09T10:32:59.741Z,21.75
2022-09-09T10:33:59.619Z,21.82
2022-09-09T10:34:59.550Z,21.82
2022-09-09T10:35:59.472Z,21.98
2022-09-09T10:36:59.402Z,22.00
2022-09-09T10:37:59.326Z,22.08
2022-09-09T10:38:59.252Z,22.10
2022-09-09T10:39:59.231Z,22.11
2022-09-09T10:40:59.110Z,22.14
2022-09-09T10:41:59.031Z,22.11
2022-09-09T10:42:58.951Z,22.06
2022-09-09T10:44:00.624Z,22.17
2022-09-09T10:44:58.807Z,22.14
2022-09-09T10:45:58.816Z,22.17
2022-09-09T10:47:01.759Z,22.26
2022-09-09T10:47:58.582Z,22.32
2022-09-09T10:48:58.516Z,22.25
2022-09-09T10:49:58.438Z,22.36
2022-09-09T10:51:04.547Z,22.45
2022-09-09T10:51:58.288Z,22.48
2022-09-09T10:52:58.213Z,22.51
2022-09-09T10:53:58.138Z,22.57
2022-09-09T10:54:58.067Z,22.63
2022-09-09T10:55:57.995Z,22.63
2022-09-09T10:56:57.921Z,22.66
2022-09-09T10:57:57.851Z,22.75
2022-09-09T10:58:57.775Z,22.83
2022-09-09T10:59:57.703Z,22.81
2022-09-09T11:00:58.335Z,22.90
2022-09-09T11:01:57.547Z,22.90
2022-09-09T11:02:57.478Z,22.98
2022-09-09T11:03:57.399Z,22.94
2022-09-09T11:04:57.328Z,22.87
2022-09-09T11:05:57.279Z,22.81
2022-09-09T11:06:57.180Z,22.76
2022-09-09T11:07:57.105Z,22.62
2022-09-09T11:08:57.192Z,22.60
2022-09-09T11:09:56.966Z,22.60
2022-09-09T11:10:56.887Z,22.50
2022-09-09T11:11:56.817Z,22.33
2022-09-09T11:12:56.744Z,22.47
2022-09-09T11:13:56.924Z,22.50
2022-09-09T11:14:56.596Z,22.54
2022-09-09T11:15:56.522Z,22.69
2022-09-09T11:16:56.482Z,22.75
2022-09-09T11:17:56.376Z,22.90
2022-09-09T11:18:56.301Z,23.03
2022-09-09T11:19:56.230Z,23.23
2022-09-09T11:20:56.152Z,23.18
2022-09-09T11:21:56.075Z,23.20
2022-09-09T11:22:56.007Z,23.39
2022-09-09T11:23:55.931Z,23.37
2022-09-09T11:24:55.857Z,23.20
2022-09-09T11:25:55.824Z,23.20
2022-09-09T11:26:55.714Z,23.21
2022-09-09T11:27:55.640Z,23.21
2022-09-09T11:28:55.567Z,23.40
2022-09-09T11:29:55.493Z,23.50
2022-09-09T11:30:57.135Z,23.56
2022-09-09T11:31:55.346Z,23.59
2022-09-09T11:32:55.271Z,23.73
2022-09-09T11:33:55.197Z,23.83
2022-09-09T11:34:55.128Z,23.99
2022-09-09T11:35:55.051Z,24.06
2022-09-09T11:36:54.978Z,24.18
2022-09-09T11:37:54.908Z,24.30
2022-09-09T11:38:54.835Z,24.51
2022-09-09T11:39:54.811Z,24.69
2022-09-09T11:40:54.688Z,24.92
2022-09-09T11:41:54.662Z,24.99
2022-09-09T11:42:54.545Z,25.28
2022-09-09T11:43:54.469Z,25.26
2022-09-09T11:44:54.396Z,25.36
2022-09-09T11:45:58.658Z,25.48
2022-09-09T11:46:54.254Z,25.80
2022-09-09T11:47:54.175Z,25.80
2022-09-09T11:48:54.106Z,25.81
2022-09-09T11:49:54.034Z,25.77
2022-09-09T11:50:53.964Z,25.62
2022-09-09T11:51:53.887Z,25.99
2022-09-09T11:52:53.819Z,26.28
2022-09-09T11:53:53.744Z,26.81
2022-09-09T11:54:53.679Z,27.29
2022-09-09T11:55:53.606Z,27.93
2022-09-09T11:56:53.536Z,28.81
2022-09-09T11:57:53.459Z,29.51
2022-09-09T11:58:53.388Z,29.53
2022-09-09T11:59:53.318Z,29.84
2022-09-09T12:00:53.252Z,30.13
2022-09-09T12:01:53.175Z,29.79
2022-09-09T12:02:53.102Z,29.35
2022-09-09T12:03:53.104Z,29.04
2022-09-09T12:04:53.015Z,29.50
2022-09-09T12:05:52.893Z,30.35
2022-09-09T12:06:52.823Z,30.84
2022-09-09T12:07:52.757Z,31.46
2022-09-09T12:08:52.685Z,32.11
2022-09-09T12:09:52.618Z,31.59
2022-09-09T12:10:52.547Z,31.85
2022-09-09T12:11:52.486Z,31.89
2022-09-09T12:12:52.409Z,32.19
2022-09-09T12:13:52.333Z,32.43
2022-09-09T12:14:52.268Z,32.29
2022-09-09T12:15:52.199Z,31.77
2022-09-09T12:16:52.189Z,32.40
2022-09-09T12:17:52.071Z,31.96
2022-09-09T12:18:52.060Z,31.92
2022-09-09T12:19:51.932Z,32.82
2022-09-09T12:20:51.860Z,32.87
2022-09-09T12:21:51.791Z,32.48
2022-09-09T12:22:51.727Z,32.15
2022-09-09T12:23:51.667Z,31.61
2022-09-09T12:24:51.588Z,31.40
2022-09-09T12:25:51.526Z,31.52
2022-09-09T12:26:51.456Z,32.30
2022-09-09T12:27:51.393Z,32.58
2022-09-09T12:28:51.331Z,32.29
2022-09-09T12:29:51.258Z,32.18
2022-09-09T12:30:51.257Z,31.51
2022-09-09T12:31:51.122Z,31.07
2022-09-09T12:32:51.104Z,30.66
2022-09-09T12:33:50.994Z,30.18
2022-09-09T12:34:50.923Z,29.59
2022-09-09T12:35:50.856Z,28.88
2022-09-09T12:36:53.827Z,28.37
2022-09-09T12:37:50.721Z,27.93
2022-09-09T12:38:50.663Z,27.39
2022-09-09T12:39:50.606Z,27.15
2022-09-09T12:40:50.517Z,26.75
2022-09-09T12:41:50.450Z,26.34
2022-09-09T12:42:50.384Z,26.07
2022-09-09T12:43:50.315Z,25.77
2022-09-09T12:44:50.246Z,25.44
2022-09-09T12:45:50.206Z,25.22
2022-09-09T12:46:50.109Z,24.93
2022-09-09T12:47:50.047Z,24.69
2022-09-09T12:48:49.965Z,24.65
2022-09-09T12:49:49.897Z,24.45
2022-09-09T12:50:49.832Z,24.28
2022-09-09T12:51:49.761Z,24.28
2022-09-09T12:52:49.691Z,24.20
2022-09-09T12:53:49.626Z,24.06